Aviation Digital Data Service (ADDS)

Output produced by METARs form (2353 UTC 28 September 2016)
found at http://aviationweather.gov/adds/metars/
 
KBTV 282320Z 2900/2924 10005KT P6SM BKN100 
     FM291500 03008KT P6SM SCT250